Time;durP1;ratioP1;P1;durP2;ratioP2;P2;SDS_P1;SDS_P2;PMS_P1;PMS_P2;Temp;Humidity;BMP_temperature;BMP_pressure;BME280_temperature;BME280_humidity;BME280_pressure;Samples;Min_cycle;Max_cycle;Signal;HPM_P1;HPM_P2
2024/03/04 00:03:15;;;;;;;72.70;38.90;;;;;;;7.12;100.00;98164.30;270163;1268;22524;-93
2024/03/04 00:09:18;;;;;;;67.80;35.70;;;;;;;7.02;100.00;98167.14;269976;1269;23260;-94
2024/03/04 00:15:32;;;;;;;61.20;33.90;;;;;;;6.90;100.00;98167.86;270274;1268;22786;-93
2024/03/04 00:21:34;;;;;;;68.40;38.40;;;;;;;6.78;100.00;98164.20;270110;1268;24212;-93
2024/03/04 00:27:37;;;;;;;66.00;37.90;;;;;;;6.67;100.00;98160.17;269995;1268;22527;-92
2024/03/04 00:33:40;;;;;;;68.10;38.70;;;;;;;6.56;100.00;98166.33;270443;1268;23295;-93
2024/03/04 00:39:50;;;;;;;66.90;38.30;;;;;;;6.42;100.00;98167.30;270651;1267;22554;-94
2024/03/04 00:46:03;;;;;;;67.50;38.20;;;;;;;6.28;100.00;98159.73;271317;1268;22513;-94
2024/03/04 00:52:17;;;;;;;72.50;40.80;;;;;;;6.19;100.00;98162.77;271097;1268;22552;-93
2024/03/04 00:58:24;;;;;;;68.50;40.20;;;;;;;6.12;100.00;98161.41;270371;1268;22572;-92
2024/03/04 01:04:52;;;;;;;76.60;41.70;;;;;;;6.01;100.00;98168.87;270941;1268;22580;-92
2024/03/04 01:11:00;;;;;;;82.20;44.50;;;;;;;5.91;100.00;98165.52;270876;1268;25305;-93
2024/03/04 01:17:03;;;;;;;87.70;46.90;;;;;;;5.84;100.00;98164.00;270736;1268;22432;-90
2024/03/04 01:23:05;;;;;;;80.80;45.40;;;;;;;5.76;100.00;98162.84;270518;1268;24841;-94
2024/03/04 01:29:08;;;;;;;88.50;45.50;;;;;;;5.67;100.00;98162.05;270344;1268;23058;-93
2024/03/04 01:35:16;;;;;;;80.40;42.90;;;;;;;5.58;100.00;98160.44;270543;1268;22605;-94
2024/03/04 01:41:19;;;;;;;83.10;44.80;;;;;;;5.48;100.00;98157.70;270189;1268;23646;-94
2024/03/04 01:47:29;;;;;;;80.50;44.50;;;;;;;5.37;100.00;98157.10;270475;1268;25297;-93
2024/03/04 01:53:37;;;;;;;83.20;44.60;;;;;;;5.27;100.00;98155.00;270177;1268;22551;-92
2024/03/04 01:59:40;;;;;;;88.10;47.30;;;;;;;5.20;100.00;98153.00;270765;1266;23192;-93
2024/03/04 02:05:43;;;;;;;86.00;46.30;;;;;;;5.13;100.00;98153.58;270308;1268;24231;-94
2024/03/04 02:11:47;;;;;;;88.20;48.20;;;;;;;5.08;100.00;98160.91;269939;1268;23436;-92
2024/03/04 02:18:00;;;;;;;73.60;41.70;;;;;;;5.02;100.00;98167.37;270024;1268;26543;-94
2024/03/04 02:24:09;;;;;;;80.20;45.60;;;;;;;4.90;100.00;98166.98;269645;1268;22502;-91
2024/03/04 02:36:32;;;;;;;84.90;47.40;;;;;;;4.78;100.00;98176.52;264471;1267;22865;-89
2024/03/04 02:42:36;;;;;;;82.60;46.60;;;;;;;4.75;100.00;98175.89;269815;1272;23889;-88
2024/03/04 02:48:44;;;;;;;87.60;47.00;;;;;;;4.70;100.00;98172.77;270075;1269;22471;-88
2024/03/04 02:54:52;;;;;;;85.00;46.10;;;;;;;4.66;100.00;98177.12;270215;1269;22216;-90
2024/03/04 03:01:08;;;;;;;79.50;45.10;;;;;;;4.64;100.00;98184.98;269861;1270;22541;-89
2024/03/04 03:07:10;;;;;;;81.50;45.90;;;;;;;4.60;100.00;98180.85;270761;1269;22533;-89
2024/03/04 03:13:19;;;;;;;85.00;46.80;;;;;;;4.50;100.00;98180.95;270373;1270;22544;-91
2024/03/04 03:19:26;;;;;;;84.30;45.90;;;;;;;4.41;100.00;98179.52;270268;1270;22551;-89
2024/03/04 03:25:28;;;;;;;;;;;;;;;4.33;100.00;98180.64;270079;1269;22519;-90
2024/03/04 03:31:51;;;;;;;109.30;55.50;;;;;;;4.27;100.00;98189.41;270609;1271;22548;-91
2024/03/04 03:37:54;;;;;;;91.00;49.50;;;;;;;4.20;100.00;98184.30;270447;1270;22514;-91
2024/03/04 03:43:56;;;;;;;94.40;48.90;;;;;;;4.15;100.00;98180.60;270197;1270;26533;-90
2024/03/04 03:50:09;;;;;;;84.30;47.50;;;;;;;4.14;100.00;98179.36;269697;1270;24628;-90
2024/03/04 03:56:12;;;;;;;99.00;51.20;;;;;;;4.12;100.00;98174.96;270013;1270;25310;-90
2024/03/04 04:02:14;;;;;;;97.60;52.80;;;;;;;4.08;100.00;98171.33;269908;1270;22518;-89
2024/03/04 04:08:16;;;;;;;91.30;49.80;;;;;;;4.06;100.00;98166.80;269519;1270;22572;-89
2024/03/04 04:14:21;;;;;;;94.20;49.60;;;;;;;4.06;100.00;98168.40;272718;1270;23558;-91
2024/03/04 04:20:47;;;;;;;90.90;49.60;;;;;;;4.06;100.00;98172.80;272752;1269;22405;-90
2024/03/04 04:26:49;;;;;;;96.80;50.70;;;;;;;4.01;100.00;98171.48;272841;1269;22340;-89
2024/03/04 04:33:03;;;;;;;113.10;57.20;;;;;;;3.96;100.00;98171.33;272899;1269;22341;-89
2024/03/04 04:39:05;;;;;;;91.60;48.60;;;;;;;3.90;100.00;98176.55;272930;1270;22347;-89
2024/03/04 04:45:17;;;;;;;101.50;49.90;;;;;;;3.89;100.00;98180.71;272716;1272;22259;-88
2024/03/04 04:51:19;;;;;;;93.60;49.50;;;;;;;3.90;100.00;98177.31;272914;1269;22268;-90
2024/03/04 04:57:26;;;;;;;97.80;49.60;;;;;;;3.85;100.00;98181.52;272746;1263;22325;-90
2024/03/04 05:03:28;;;;;;;91.40;47.00;;;;;;;3.81;100.00;98178.40;272774;1269;23754;-89
2024/03/04 05:09:32;;;;;;;96.30;50.70;;;;;;;3.77;100.00;98181.02;272883;1270;23349;-90
2024/03/04 05:15:35;;;;;;;110.10;53.10;;;;;;;3.77;100.00;98177.77;272927;1272;23414;-90
2024/03/04 05:21:38;;;;;;;102.80;51.10;;;;;;;3.79;100.00;98179.52;272700;1272;22463;-89
2024/03/04 05:27:40;;;;;;;119.00;50.00;;;;;;;3.80;100.00;98189.90;272664;1270;23567;-90
2024/03/04 05:33:45;;;;;;;108.50;49.80;;;;;;;3.79;100.00;98189.97;272820;1271;22396;-89
2024/03/04 05:39:48;;;;;;;114.00;48.90;;;;;;;3.79;100.00;98194.30;273000;1272;22459;-90
2024/03/04 05:45:51;;;;;;;124.50;49.90;;;;;;;3.82;100.00;98195.45;272969;1269;22405;-89
2024/03/04 05:51:54;;;;;;;139.20;48.80;;;;;;;3.84;100.00;98195.64;272812;1272;22201;-90
2024/03/04 05:57:57;;;;;;;120.80;50.60;;;;;;;3.85;100.00;98204.11;272828;1270;22419;-89
2024/03/04 06:04:03;;;;;;;119.30;51.50;;;;;;;3.92;100.00;98211.11;272944;1269;22379;-89
2024/03/04 06:10:07;;;;;;;133.70;55.30;;;;;;;4.00;100.00;98213.85;272747;1270;22439;-89
2024/03/04 06:16:08;;;;;;;149.00;57.60;;;;;;;4.07;100.00;98218.41;272821;1269;22211;-91
2024/03/04 06:22:11;;;;;;;136.40;55.70;;;;;;;4.13;100.00;98227.63;272807;1272;22211;-89
2024/03/04 06:28:15;;;;;;;140.40;56.80;;;;;;;4.21;100.00;98229.90;272873;1271;22528;-89
2024/03/04 06:34:17;;;;;;;126.50;53.90;;;;;;;4.25;100.00;98233.88;272600;1272;22432;-88
2024/03/04 06:40:20;;;;;;;141.60;52.90;;;;;;;4.26;100.00;98241.41;272263;1272;22370;-90
2024/03/04 06:46:29;;;;;;;129.30;49.50;;;;;;;4.25;100.00;98242.94;272422;1272;22339;-89
2024/03/04 06:52:39;;;;;;;134.30;53.70;;;;;;;4.24;100.00;98242.29;272627;1272;22219;-89
2024/03/04 06:58:43;;;;;;;105.60;49.70;;;;;;;4.21;100.00;98236.71;272502;1272;22313;-88
2024/03/04 07:04:46;;;;;;;95.70;47.60;;;;;;;4.20;100.00;98240.65;272417;1272;23466;-88
2024/03/04 07:10:49;;;;;;;91.70;50.60;;;;;;;4.30;100.00;98240.17;272498;1272;22484;-88
2024/03/04 07:16:52;;;;;;;90.50;50.60;;;;;;;4.44;100.00;98240.74;272443;1272;22415;-89
2024/03/04 07:22:54;;;;;;;93.10;50.70;;;;;;;4.60;100.00;98241.80;272466;1273;22437;-89
2024/03/04 07:29:00;;;;;;;93.20;51.10;;;;;;;4.78;100.00;98243.29;272395;1272;22300;-88
2024/03/04 07:35:05;;;;;;;90.60;50.90;;;;;;;4.92;100.00;98246.23;272725;1272;22232;-88
2024/03/04 07:41:07;;;;;;;94.00;51.70;;;;;;;5.03;100.00;98242.88;272609;1270;22378;-89
2024/03/04 07:47:09;;;;;;;97.50;53.80;;;;;;;5.21;100.00;98241.87;272583;1272;22210;-89
2024/03/04 07:53:12;;;;;;;102.80;54.40;;;;;;;5.48;100.00;98243.78;272716;1270;22395;-89
2024/03/04 07:59:15;;;;;;;94.00;52.40;;;;;;;5.62;100.00;98243.35;272614;1272;22427;-88
2024/03/04 08:05:18;;;;;;;94.50;55.50;;;;;;;5.71;100.00;98247.30;272950;1271;22810;-88
2024/03/04 08:11:21;;;;;;;102.20;56.00;;;;;;;5.93;100.00;98249.20;272574;1272;22246;-88
2024/03/04 08:17:26;;;;;;;101.80;54.10;;;;;;;6.16;100.00;98248.52;272738;1269;22699;-89
2024/03/04 08:23:29;;;;;;;103.40;55.20;;;;;;;6.62;100.00;98245.42;272726;1270;22272;-89
2024/03/04 08:29:34;;;;;;;102.00;55.70;;;;;;;6.83;100.00;98246.27;272718;1270;22391;-91
2024/03/04 08:35:36;;;;;;;102.90;57.40;;;;;;;6.98;100.00;98250.43;272391;1272;22800;-89
2024/03/04 08:41:45;;;;;;;104.10;57.30;;;;;;;7.63;100.00;98244.98;272294;1272;22457;-91
2024/03/04 08:47:47;;;;;;;99.10;54.30;;;;;;;8.45;100.00;98242.33;272108;1273;22401;-90
2024/03/04 08:53:49;;;;;;;80.40;48.60;;;;;;;9.09;100.00;98233.84;272288;1272;22205;-90
2024/03/04 08:59:52;;;;;;;79.70;46.10;;;;;;;9.82;100.00;98229.40;272533;1272;22438;-89
2024/03/04 09:05:54;;;;;;;75.10;43.10;;;;;;;10.48;100.00;98223.45;272310;1274;22382;-90
2024/03/04 09:11:56;;;;;;;72.10;44.30;;;;;;;11.24;100.00;98224.04;272374;1272;22245;-89
2024/03/04 09:17:59;;;;;;;66.00;40.50;;;;;;;12.02;100.00;98214.70;272475;1272;22430;-89
2024/03/04 09:24:02;;;;;;;61.90;39.80;;;;;;;12.78;100.00;98209.21;272425;1272;22701;-90
2024/03/04 09:30:15;;;;;;;63.30;39.70;;;;;;;13.39;100.00;98209.09;272279;1273;22336;-89
2024/03/04 09:36:17;;;;;;;59.10;37.70;;;;;;;13.79;100.00;98203.21;272594;1269;23546;-90
2024/03/04 09:42:19;;;;;;;49.50;33.20;;;;;;;14.29;100.00;98200.66;272625;1269;22357;-90
2024/03/04 09:48:25;;;;;;;45.20;32.20;;;;;;;14.83;100.00;98206.41;272844;1270;22359;-90
2024/03/04 09:54:29;;;;;;;46.60;33.20;;;;;;;15.23;100.00;98204.77;272800;1269;23730;-89
2024/03/04 10:00:32;;;;;;;51.20;32.10;;;;;;;15.51;100.00;98203.81;272509;1270;22874;-91
2024/03/04 10:06:36;;;;;;;48.50;31.80;;;;;;;15.92;100.00;98201.13;272664;1269;22339;-90
2024/03/04 10:12:42;;;;;;;41.60;28.50;;;;;;;16.19;100.00;98191.79;272598;1270;23433;-91
2024/03/04 10:18:56;;;;;;;45.40;30.50;;;;;;;16.59;100.00;98186.88;272759;1262;22381;-90
2024/03/04 10:25:04;;;;;;;48.80;29.20;;;;;;;16.76;99.59;98189.52;272534;1269;22307;-91
2024/03/04 10:31:14;;;;;;;35.90;27.40;;;;;;;16.55;98.31;98183.52;272602;1269;22395;-90
2024/03/04 10:37:17;;;;;;;44.40;28.20;;;;;;;16.46;96.48;98173.77;272413;1270;22371;-89
2024/03/04 10:43:20;;;;;;;36.60;26.40;;;;;;;15.92;93.96;98166.48;272352;1270;22485;-92
2024/03/04 10:49:23;;;;;;;40.20;26.10;;;;;;;15.28;93.26;98157.16;272355;1270;22581;-90
2024/03/04 10:55:25;;;;;;;40.20;26.60;;;;;;;14.83;92.82;98150.90;272413;1271;22186;-90
2024/03/04 11:01:29;;;;;;;38.10;23.90;;;;;;;14.48;92.19;98145.05;272219;1271;22344;-90
2024/03/04 11:07:34;;;;;;;38.90;25.00;;;;;;;14.32;91.17;98140.13;272242;1271;22443;-90
2024/03/04 11:14:18;;;;;;;39.60;26.20;;;;;;;14.15;90.81;98138.03;272030;1270;22311;-91
2024/03/04 11:20:24;;;;;;;33.80;23.90;;;;;;;14.08;90.14;98132.02;271810;1270;22314;-90
2024/03/04 11:26:28;;;;;;;34.20;23.70;;;;;;;13.97;89.38;98125.20;272168;1272;22266;-91
2024/03/04 11:32:33;;;;;;;44.90;26.90;;;;;;;13.76;88.53;98126.09;272384;1272;23634;-91
2024/03/04 11:38:45;;;;;;;37.40;26.00;;;;;;;13.60;88.67;98127.58;272226;1272;141946;-90
2024/03/04 11:44:57;;;;;;;43.40;28.00;;;;;;;13.49;88.19;98118.78;272382;1272;23131;-89
2024/03/04 11:51:51;;;;;;;44.80;28.80;;;;;;;13.32;87.29;98115.95;272342;1271;22318;-92
2024/03/04 11:58:01;;;;;;;51.50;30.10;;;;;;;13.17;87.10;98109.97;272596;1270;22389;-88
2024/03/04 12:04:03;;;;;;;42.60;28.80;;;;;;;13.10;87.73;98104.40;272470;1272;22268;-89
2024/03/04 12:10:08;;;;;;;42.10;27.00;;;;;;;13.11;88.02;98101.58;272472;1272;22295;-89
2024/03/04 12:16:14;;;;;;;43.60;29.00;;;;;;;13.08;88.09;98103.73;272631;1272;22319;-90
2024/03/04 12:22:15;;;;;;;41.60;27.60;;;;;;;12.92;87.82;98110.58;272416;1272;22204;-88
2024/03/04 12:28:18;;;;;;;44.20;28.50;;;;;;;12.63;88.40;98110.27;272467;1271;22476;-88
2024/03/04 12:34:26;;;;;;;42.70;28.00;;;;;;;12.43;89.20;98109.40;272493;1269;22270;-89
2024/03/04 12:40:28;;;;;;;42.80;26.70;;;;;;;12.38;89.65;98105.30;272763;1269;22793;-90
2024/03/04 12:46:37;;;;;;;40.10;25.80;;;;;;;12.34;89.90;98098.52;272777;1269;22352;-89
2024/03/04 12:53:17;;;;;;;;;;;;;;;;;;;;;
2024/03/04 12:59:36;;;;;;;42.80;26.80;;;;;;;12.21;90.69;98086.65;272868;1269;22444;-88
2024/03/04 13:05:39;;;;;;;39.60;25.00;;;;;;;12.15;90.91;98095.96;272890;1269;22564;-89
2024/03/04 13:11:41;;;;;;;37.00;25.20;;;;;;;12.09;91.27;98098.29;272658;1270;22432;-88
2024/03/04 13:17:44;;;;;;;44.20;27.90;;;;;;;12.02;92.32;98100.70;272792;1269;23585;-89
2024/03/04 13:23:49;;;;;;;53.30;33.00;;;;;;;12.03;92.98;98092.95;272661;1269;22205;-89
2024/03/04 13:29:53;;;;;;;48.10;31.80;;;;;;;12.04;93.34;98077.17;272708;1269;25405;-89
2024/03/04 13:36:00;;;;;;;57.20;33.50;;;;;;;12.01;93.75;98080.34;272643;1269;22358;-89
2024/03/04 13:42:03;;;;;;;65.20;39.60;;;;;;;11.97;93.99;98092.45;272525;1269;22385;-87
2024/03/04 13:48:06;;;;;;;57.90;37.60;;;;;;;11.83;95.25;98068.27;272626;1270;22344;-89
2024/03/04 13:54:08;;;;;;;55.80;37.00;;;;;;;11.62;96.45;98071.16;272545;1269;22435;-91
2024/03/04 14:00:13;;;;;;;59.00;35.30;;;;;;;11.52;98.63;98091.29;272702;1270;22638;-89
2024/03/04 14:06:15;;;;;;;71.50;44.20;;;;;;;11.52;99.92;98079.45;272643;1269;22314;-89
2024/03/04 14:12:17;;;;;;;72.80;45.80;;;;;;;11.50;99.69;98059.13;272632;1269;22373;-89
2024/03/04 14:18:20;;;;;;;76.20;45.40;;;;;;;11.41;99.86;98052.38;272654;1269;23348;-89
2024/03/04 14:24:28;;;;;;;63.40;42.30;;;;;;;11.38;100.00;98053.88;272578;1271;22896;-88
2024/03/04 14:30:33;;;;;;;64.90;40.30;;;;;;;11.37;100.00;98053.73;272457;1271;22379;-89
2024/03/04 14:36:35;;;;;;;63.00;37.10;;;;;;;11.44;100.00;98065.35;272424;1270;22368;-88
2024/03/04 14:42:37;;;;;;;61.30;38.30;;;;;;;11.50;100.00;98071.41;272414;1272;23644;-88
2024/03/04 14:48:45;;;;;;;68.90;41.60;;;;;;;11.53;100.00;98069.41;272583;1272;22416;-89
2024/03/04 14:54:47;;;;;;;138.70;59.20;;;;;;;11.49;100.00;98063.27;272541;1271;22376;-89
2024/03/04 15:00:53;;;;;;;74.30;43.10;;;;;;;11.42;100.00;98064.58;272395;1272;22467;-88
2024/03/04 15:06:56;;;;;;;61.30;39.30;;;;;;;11.35;100.00;98067.14;272442;1272;22222;-88
2024/03/04 15:12:58;;;;;;;66.40;40.50;;;;;;;11.30;100.00;98060.59;272450;1272;23155;-88
2024/03/04 15:19:01;;;;;;;61.00;38.90;;;;;;;11.30;100.00;98071.55;272375;1259;22430;-89
2024/03/04 15:25:05;;;;;;;57.30;36.90;;;;;;;11.22;100.00;98079.27;272451;1265;22468;-89
2024/03/04 15:31:07;;;;;;;64.40;41.90;;;;;;;11.19;100.00;98080.38;272389;1272;22469;-89
2024/03/04 15:37:12;;;;;;;60.30;39.50;;;;;;;11.18;100.00;98075.92;272570;1270;25948;-88
2024/03/04 15:43:16;;;;;;;63.80;37.70;;;;;;;11.12;100.00;98076.11;272629;1271;22414;-87
2024/03/04 15:49:18;;;;;;;65.70;38.40;;;;;;;10.98;100.00;98074.92;272680;1270;23482;-89
2024/03/04 15:55:20;;;;;;;73.20;45.00;;;;;;;10.90;100.00;98081.40;272503;1270;22491;-88
2024/03/04 16:01:24;;;;;;;64.50;42.20;;;;;;;10.80;100.00;98091.08;272540;1270;24804;-89
2024/03/04 16:07:26;;;;;;;65.50;41.10;;;;;;;10.79;100.00;98092.40;272734;1270;22468;-88
2024/03/04 16:13:28;;;;;;;71.40;44.80;;;;;;;10.72;100.00;98096.49;272621;1270;22346;-87
2024/03/04 16:19:31;;;;;;;75.30;47.30;;;;;;;10.65;100.00;98095.90;272596;1270;22474;-87
2024/03/04 16:25:34;;;;;;;75.40;46.20;;;;;;;10.64;100.00;98099.95;272527;1270;22375;-88
2024/03/04 16:31:41;;;;;;;69.20;43.30;;;;;;;10.62;100.00;98099.96;272600;1270;23386;-89
2024/03/04 16:37:43;;;;;;;74.30;44.10;;;;;;;10.55;100.00;98098.90;272834;1269;22263;-88
2024/03/04 16:43:48;;;;;;;75.50;45.20;;;;;;;10.40;100.00;98109.56;272587;1269;22375;-88
2024/03/04 16:49:55;;;;;;;81.70;50.60;;;;;;;10.28;100.00;98103.19;272596;1269;23134;-88
2024/03/04 16:56:12;;;;;;;92.70;50.20;;;;;;;10.20;100.00;98098.66;272483;1269;23062;-89
2024/03/04 17:02:18;;;;;;;98.10;48.20;;;;;;;10.21;100.00;98097.27;272690;1269;22235;-89
2024/03/04 17:08:20;;;;;;;80.80;46.60;;;;;;;10.18;100.00;98105.17;272550;1269;22400;-89
2024/03/04 17:14:25;;;;;;;78.80;46.20;;;;;;;10.12;100.00;98110.16;272803;1263;22314;-89
2024/03/04 17:20:32;;;;;;;80.70;47.20;;;;;;;10.00;100.00;98122.58;272578;1269;22318;-90
2024/03/04 17:26:35;;;;;;;83.10;50.20;;;;;;;9.97;100.00;98130.92;272800;1269;22252;-88
2024/03/04 17:32:44;;;;;;;82.80;50.30;;;;;;;9.95;100.00;98136.79;272606;1259;22500;-89
2024/03/04 17:38:47;;;;;;;80.80;50.40;;;;;;;9.88;100.00;98131.87;272559;1272;23390;-89
2024/03/04 17:44:54;;;;;;;82.10;50.30;;;;;;;9.88;100.00;98115.86;272347;1272;22380;-88
2024/03/04 17:51:03;;;;;;;86.80;52.70;;;;;;;9.93;100.00;98111.10;264732;1272;10001972;-90
2024/03/04 17:57:06;;;;;;;95.90;58.00;;;;;;;9.92;100.00;98134.53;272202;1272;22244;-90
2024/03/04 18:03:08;;;;;;;98.70;57.90;;;;;;;9.87;100.00;98139.21;272383;1272;22218;-90
2024/03/04 18:09:11;;;;;;;101.10;58.70;;;;;;;9.79;100.00;98126.88;272246;1272;23341;-89
2024/03/04 18:15:20;;;;;;;97.00;56.50;;;;;;;9.78;100.00;98133.60;272343;1271;22227;-89
2024/03/04 18:21:27;;;;;;;90.00;52.40;;;;;;;9.79;100.00;98141.55;272342;1272;22803;-89
2024/03/04 18:27:32;;;;;;;88.40;51.50;;;;;;;9.74;100.00;98153.73;272386;1271;22224;-90
2024/03/04 18:33:39;;;;;;;101.10;57.40;;;;;;;9.61;100.00;98155.20;272514;1269;22354;-88
2024/03/04 18:39:44;;;;;;;96.50;56.50;;;;;;;9.46;100.00;98160.88;272635;1270;23322;-89
2024/03/04 18:45:51;;;;;;;80.60;48.90;;;;;;;9.39;100.00;98157.58;272641;1269;22274;-89
2024/03/04 18:52:00;;;;;;;79.50;47.80;;;;;;;9.36;100.00;98157.56;272779;1268;22438;-90
2024/03/04 18:58:04;;;;;;;76.50;46.00;;;;;;;9.34;100.00;98165.91;272869;1269;22388;-88
2024/03/04 19:04:06;;;;;;;75.10;45.70;;;;;;;9.31;100.00;98179.25;272551;1270;22208;-89
2024/03/04 19:10:17;;;;;;;89.40;53.20;;;;;;;9.33;100.00;98186.98;272527;1269;23732;-89
2024/03/04 19:16:33;;;;;;;;;;;;;;;;;;;;;
2024/03/04 19:22:42;;;;;;;93.30;54.20;;;;;;;9.39;100.00;98181.23;272575;1269;22346;-90
2024/03/04 19:28:54;;;;;;;91.90;51.60;;;;;;;9.34;100.00;98178.00;272713;1269;22405;-90
2024/03/04 19:35:34;;;;;;;96.80;53.70;;;;;;;9.28;100.00;98182.52;272524;1269;22551;-89
2024/03/04 19:41:42;;;;;;;85.50;51.10;;;;;;;9.20;100.00;98181.55;272498;1272;23356;-90
2024/03/04 19:47:44;;;;;;;93.10;55.00;;;;;;;9.15;100.00;98184.34;272933;1262;22627;-88
2024/03/04 19:53:57;;;;;;;95.90;55.80;;;;;;;9.09;100.00;98182.76;272588;1270;23300;-88
2024/03/04 20:00:01;;;;;;;92.30;55.10;;;;;;;9.05;100.00;98190.16;272805;1259;22440;-89
2024/03/04 20:06:03;;;;;;;100.90;56.80;;;;;;;9.00;100.00;98198.86;272489;1272;22356;-89
2024/03/04 20:12:05;;;;;;;101.10;54.70;;;;;;;8.95;100.00;98202.73;272641;1270;22475;-92
2024/03/04 20:18:22;;;;;;;91.60;52.70;;;;;;;8.93;100.00;98206.16;272850;1269;22237;-89
2024/03/04 20:24:38;;;;;;;90.40;51.30;;;;;;;8.88;100.00;98209.65;272826;1269;23116;-89
2024/03/04 20:30:43;;;;;;;93.10;51.40;;;;;;;8.82;100.00;98223.89;272677;1270;22317;-90
2024/03/04 20:36:50;;;;;;;101.30;56.40;;;;;;;8.78;100.00;98233.06;272688;1270;22207;-90
2024/03/04 20:42:54;;;;;;;86.50;52.60;;;;;;;8.76;100.00;98230.48;272598;1270;22382;-89
2024/03/04 20:48:58;;;;;;;102.70;58.20;;;;;;;8.76;100.00;98223.16;272792;1269;22268;-89
2024/03/04 20:55:01;;;;;;;103.10;56.00;;;;;;;8.74;100.00;98223.52;272588;1270;22317;-89
2024/03/04 21:01:03;;;;;;;96.80;53.00;;;;;;;8.69;100.00;98220.76;272615;1269;22345;-89
2024/03/04 21:07:06;;;;;;;90.60;52.00;;;;;;;8.65;100.00;98221.29;272904;1270;22389;-89
2024/03/04 21:13:09;;;;;;;92.20;50.60;;;;;;;8.62;100.00;98217.38;272775;1269;22212;-89
2024/03/04 21:19:12;;;;;;;89.50;49.30;;;;;;;8.58;100.00;98219.61;272806;1270;22202;-89
2024/03/04 21:25:15;;;;;;;86.90;50.70;;;;;;;8.56;100.00;98229.41;272792;1272;22435;-89
2024/03/04 21:31:19;;;;;;;93.10;52.40;;;;;;;8.54;100.00;98227.29;272520;1270;22348;-88
2024/03/04 21:37:22;;;;;;;96.70;54.80;;;;;;;8.50;100.00;98218.54;272954;1270;22197;-88
2024/03/04 21:43:27;;;;;;;86.90;51.30;;;;;;;8.45;100.00;98223.71;272539;1269;22347;-88
2024/03/04 21:49:30;;;;;;;89.70;53.50;;;;;;;8.43;100.00;98227.21;272656;1270;22494;-90
2024/03/04 21:55:43;;;;;;;82.10;49.00;;;;;;;8.41;100.00;98231.40;272606;1262;22430;-89
2024/03/04 22:01:53;;;;;;;86.50;49.60;;;;;;;8.35;100.00;98243.98;272723;1270;22437;-88
2024/03/04 22:07:59;;;;;;;91.40;51.90;;;;;;;8.32;100.00;98250.73;272929;1269;22438;-88
2024/03/04 22:14:12;;;;;;;80.40;48.20;;;;;;;8.33;100.00;98249.27;272740;1272;22365;-89
2024/03/04 22:20:16;;;;;;;82.10;49.10;;;;;;;8.34;100.00;98253.25;272803;1269;22230;-90
2024/03/04 22:26:18;;;;;;;86.10;50.30;;;;;;;8.36;100.00;98253.35;272737;1269;22691;-88
2024/03/04 22:32:20;;;;;;;84.90;49.10;;;;;;;8.39;100.00;98253.21;272834;1269;23192;-89
2024/03/04 22:38:23;;;;;;;85.50;49.70;;;;;;;8.39;100.00;98252.05;272894;1271;23091;-89
2024/03/04 22:44:26;;;;;;;88.20;49.40;;;;;;;8.35;100.00;98240.71;272676;1270;22177;-90
2024/03/04 22:50:35;;;;;;;93.20;53.90;;;;;;;8.32;100.00;98234.30;272915;1272;22450;-88
2024/03/04 22:56:37;;;;;;;89.80;51.80;;;;;;;8.28;100.00;98234.65;272728;1269;22322;-90
2024/03/04 23:02:41;;;;;;;87.20;50.90;;;;;;;8.23;100.00;98237.88;272857;1269;22494;-89
2024/03/04 23:08:44;;;;;;;90.60;52.00;;;;;;;8.22;100.00;98240.11;272511;1270;23637;-89
2024/03/04 23:14:47;;;;;;;85.90;50.20;;;;;;;8.22;100.00;98234.05;272502;1269;22236;-88
2024/03/04 23:20:52;;;;;;;88.70;51.10;;;;;;;8.20;100.00;98238.21;273000;1270;22352;-89
2024/03/04 23:26:54;;;;;;;79.30;47.00;;;;;;;8.22;100.00;98241.20;272637;1273;22206;-88
2024/03/04 23:32:56;;;;;;;81.90;48.30;;;;;;;8.18;100.00;98251.14;272552;1270;22413;-88
2024/03/04 23:38:59;;;;;;;83.50;48.80;;;;;;;8.16;100.00;98256.89;271010;1270;2357979;-87
2024/03/04 23:45:02;;;;;;;89.90;50.90;;;;;;;8.14;100.00;98254.22;272902;1270;22279;-88
2024/03/04 23:51:04;;;;;;;93.10;55.70;;;;;;;8.13;100.00;98243.45;272748;1269;22336;-87
2024/03/04 23:57:12;;;;;;;92.40;55.00;;;;;;;8.13;100.00;98235.98;272995;1272;23172;-88
